sensor_id;sensor_type;location;lat;lon;timestamp;P1;durP1;ratioP1;P2;durP2;ratioP2
26040;SDS011;13816;53.628;9.950;2023-06-26T00:00:34;13.87;;;11.60;;
26040;SDS011;13816;53.628;9.950;2023-06-26T00:03:03;16.10;;;11.03;;
26040;SDS011;13816;53.628;9.950;2023-06-26T00:05:31;13.23;;;12.00;;
26040;SDS011;13816;53.628;9.950;2023-06-26T00:07:59;12.93;;;11.73;;
26040;SDS011;13816;53.628;9.950;2023-06-26T00:10:27;11.97;;;10.87;;
26040;SDS011;13816;53.628;9.950;2023-06-26T00:12:54;11.97;;;10.83;;
26040;SDS011;13816;53.628;9.950;2023-06-26T00:15:21;12.13;;;10.93;;
26040;SDS011;13816;53.628;9.950;2023-06-26T00:17:48;14.03;;;11.40;;
26040;SDS011;13816;53.628;9.950;2023-06-26T00:20:17;12.03;;;10.80;;
26040;SDS011;13816;53.628;9.950;2023-06-26T00:22:45;12.37;;;11.07;;
26040;SDS011;13816;53.628;9.950;2023-06-26T00:25:12;13.53;;;12.23;;
26040;SDS011;13816;53.628;9.950;2023-06-26T00:27:42;12.70;;;11.47;;
26040;SDS011;13816;53.628;9.950;2023-06-26T00:30:09;12.00;;;10.80;;
26040;SDS011;13816;53.628;9.950;2023-06-26T00:32:37;12.80;;;11.50;;
26040;SDS011;13816;53.628;9.950;2023-06-26T00:35:04;16.10;;;11.17;;
26040;SDS011;13816;53.628;9.950;2023-06-26T00:37:32;13.23;;;11.83;;
26040;SDS011;13816;53.628;9.950;2023-06-26T00:39:59;12.87;;;11.40;;
26040;SDS011;13816;53.628;9.950;2023-06-26T00:42:26;12.80;;;11.47;;
26040;SDS011;13816;53.628;9.950;2023-06-26T00:44:53;12.93;;;11.63;;
26040;SDS011;13816;53.628;9.950;2023-06-26T00:47:21;12.97;;;11.77;;
26040;SDS011;13816;53.628;9.950;2023-06-26T00:49:49;13.83;;;12.30;;
26040;SDS011;13816;53.628;9.950;2023-06-26T00:52:17;14.13;;;12.57;;
26040;SDS011;13816;53.628;9.950;2023-06-26T00:54:45;13.03;;;11.70;;
26040;SDS011;13816;53.628;9.950;2023-06-26T00:57:12;11.90;;;10.70;;
26040;SDS011;13816;53.628;9.950;2023-06-26T00:59:40;11.73;;;10.63;;
26040;SDS011;13816;53.628;9.950;2023-06-26T01:02:07;12.17;;;11.00;;
26040;SDS011;13816;53.628;9.950;2023-06-26T01:04:36;13.67;;;12.27;;
26040;SDS011;13816;53.628;9.950;2023-06-26T01:07:05;12.50;;;11.30;;
26040;SDS011;13816;53.628;9.950;2023-06-26T01:09:34;15.20;;;12.10;;
26040;SDS011;13816;53.628;9.950;2023-06-26T01:12:02;11.43;;;10.33;;
26040;SDS011;13816;53.628;9.950;2023-06-26T01:14:36;12.03;;;10.83;;
26040;SDS011;13816;53.628;9.950;2023-06-26T01:17:05;13.10;;;11.83;;
26040;SDS011;13816;53.628;9.950;2023-06-26T01:19:33;12.60;;;11.30;;
26040;SDS011;13816;53.628;9.950;2023-06-26T01:27:45;12.10;;;10.90;;
26040;SDS011;13816;53.628;9.950;2023-06-26T01:30:14;13.43;;;12.03;;
26040;SDS011;13816;53.628;9.950;2023-06-26T01:32:44;13.87;;;12.50;;
26040;SDS011;13816;53.628;9.950;2023-06-26T01:35:16;15.33;;;11.90;;
26040;SDS011;13816;53.628;9.950;2023-06-26T01:37:44;13.60;;;12.00;;
26040;SDS011;13816;53.628;9.950;2023-06-26T01:40:13;13.63;;;12.33;;
26040;SDS011;13816;53.628;9.950;2023-06-26T01:42:42;12.57;;;11.30;;
26040;SDS011;13816;53.628;9.950;2023-06-26T01:45:18;13.60;;;12.20;;
26040;SDS011;13816;53.628;9.950;2023-06-26T01:47:50;14.27;;;12.13;;
26040;SDS011;13816;53.628;9.950;2023-06-26T01:50:22;12.97;;;11.77;;
26040;SDS011;13816;53.628;9.950;2023-06-26T01:55:48;12.77;;;11.37;;
26040;SDS011;13816;53.628;9.950;2023-06-26T01:58:43;12.97;;;11.77;;
26040;SDS011;13816;53.628;9.950;2023-06-26T02:01:12;12.53;;;11.30;;
26040;SDS011;13816;53.628;9.950;2023-06-26T02:03:42;13.20;;;11.97;;
26040;SDS011;13816;53.628;9.950;2023-06-26T02:06:09;16.00;;;13.43;;
26040;SDS011;13816;53.628;9.950;2023-06-26T02:08:38;19.83;;;11.60;;
26040;SDS011;13816;53.628;9.950;2023-06-26T02:11:05;15.00;;;11.40;;
26040;SDS011;13816;53.628;9.950;2023-06-26T02:13:33;15.37;;;12.17;;
26040;SDS011;13816;53.628;9.950;2023-06-26T02:16:00;12.17;;;10.87;;
26040;SDS011;13816;53.628;9.950;2023-06-26T02:18:30;12.60;;;11.23;;
26040;SDS011;13816;53.628;9.950;2023-06-26T02:20:58;13.47;;;12.10;;
26040;SDS011;13816;53.628;9.950;2023-06-26T02:23:25;12.17;;;11.10;;
26040;SDS011;13816;53.628;9.950;2023-06-26T02:25:53;12.80;;;11.47;;
26040;SDS011;13816;53.628;9.950;2023-06-26T02:28:21;13.87;;;12.47;;
26040;SDS011;13816;53.628;9.950;2023-06-26T02:30:53;13.63;;;12.30;;
26040;SDS011;13816;53.628;9.950;2023-06-26T02:33:23;13.73;;;12.13;;
26040;SDS011;13816;53.628;9.950;2023-06-26T02:35:53;12.90;;;11.70;;
26040;SDS011;13816;53.628;9.950;2023-06-26T02:38:23;13.37;;;12.17;;
26040;SDS011;13816;53.628;9.950;2023-06-26T02:40:51;13.50;;;12.10;;
26040;SDS011;13816;53.628;9.950;2023-06-26T02:43:20;13.63;;;12.33;;
26040;SDS011;13816;53.628;9.950;2023-06-26T02:45:48;13.10;;;11.80;;
26040;SDS011;13816;53.628;9.950;2023-06-26T02:48:15;12.90;;;11.50;;
26040;SDS011;13816;53.628;9.950;2023-06-26T02:50:44;13.20;;;11.90;;
26040;SDS011;13816;53.628;9.950;2023-06-26T02:53:15;12.77;;;11.53;;
26040;SDS011;13816;53.628;9.950;2023-06-26T02:55:45;13.90;;;12.50;;
26040;SDS011;13816;53.628;9.950;2023-06-26T02:58:16;12.40;;;11.23;;
26040;SDS011;13816;53.628;9.950;2023-06-26T03:00:45;12.83;;;11.53;;
26040;SDS011;13816;53.628;9.950;2023-06-26T03:03:19;13.53;;;12.13;;
26040;SDS011;13816;53.628;9.950;2023-06-26T03:05:48;13.40;;;11.67;;
26040;SDS011;13816;53.628;9.950;2023-06-26T03:08:16;11.80;;;10.57;;
26040;SDS011;13816;53.628;9.950;2023-06-26T03:10:45;15.77;;;11.53;;
26040;SDS011;13816;53.628;9.950;2023-06-26T03:13:13;13.60;;;12.37;;
26040;SDS011;13816;53.628;9.950;2023-06-26T03:15:41;14.03;;;12.63;;
26040;SDS011;13816;53.628;9.950;2023-06-26T03:18:08;13.20;;;11.67;;
26040;SDS011;13816;53.628;9.950;2023-06-26T03:20:36;13.60;;;12.20;;
26040;SDS011;13816;53.628;9.950;2023-06-26T03:23:03;13.50;;;12.10;;
26040;SDS011;13816;53.628;9.950;2023-06-26T03:25:31;12.70;;;11.40;;
26040;SDS011;13816;53.628;9.950;2023-06-26T03:28:20;13.00;;;11.70;;
26040;SDS011;13816;53.628;9.950;2023-06-26T03:30:48;15.97;;;12.63;;
26040;SDS011;13816;53.628;9.950;2023-06-26T03:33:18;12.63;;;11.43;;
26040;SDS011;13816;53.628;9.950;2023-06-26T03:35:47;12.70;;;11.50;;
26040;SDS011;13816;53.628;9.950;2023-06-26T03:38:14;13.83;;;12.30;;
26040;SDS011;13816;53.628;9.950;2023-06-26T03:40:45;12.03;;;10.83;;
26040;SDS011;13816;53.628;9.950;2023-06-26T03:43:14;13.07;;;11.80;;
26040;SDS011;13816;53.628;9.950;2023-06-26T03:45:50;11.77;;;10.67;;
26040;SDS011;13816;53.628;9.950;2023-06-26T03:48:21;12.20;;;11.00;;
26040;SDS011;13816;53.628;9.950;2023-06-26T03:50:49;13.17;;;11.87;;
26040;SDS011;13816;53.628;9.950;2023-06-26T03:53:17;11.67;;;10.47;;
26040;SDS011;13816;53.628;9.950;2023-06-26T03:55:47;12.40;;;10.50;;
26040;SDS011;13816;53.628;9.950;2023-06-26T03:58:16;12.03;;;10.73;;
26040;SDS011;13816;53.628;9.950;2023-06-26T04:00:44;13.50;;;10.73;;
26040;SDS011;13816;53.628;9.950;2023-06-26T04:03:13;11.10;;;10.10;;
26040;SDS011;13816;53.628;9.950;2023-06-26T04:05:42;13.13;;;9.80;;
26040;SDS011;13816;53.628;9.950;2023-06-26T04:08:13;9.80;;;8.90;;
26040;SDS011;13816;53.628;9.950;2023-06-26T04:10:40;11.60;;;10.50;;
26040;SDS011;13816;53.628;9.950;2023-06-26T04:13:08;12.00;;;10.80;;
26040;SDS011;13816;53.628;9.950;2023-06-26T04:15:36;11.13;;;10.03;;
26040;SDS011;13816;53.628;9.950;2023-06-26T04:18:04;12.20;;;9.77;;
26040;SDS011;13816;53.628;9.950;2023-06-26T04:20:32;11.73;;;10.53;;
26040;SDS011;13816;53.628;9.950;2023-06-26T04:23:06;11.07;;;9.97;;
26040;SDS011;13816;53.628;9.950;2023-06-26T04:25:39;11.63;;;9.87;;
26040;SDS011;13816;53.628;9.950;2023-06-26T04:28:07;11.53;;;10.33;;
26040;SDS011;13816;53.628;9.950;2023-06-26T04:30:36;14.50;;;10.70;;
26040;SDS011;13816;53.628;9.950;2023-06-26T04:33:05;11.57;;;10.37;;
26040;SDS011;13816;53.628;9.950;2023-06-26T04:35:34;11.57;;;10.40;;
26040;SDS011;13816;53.628;9.950;2023-06-26T04:38:17;11.53;;;9.47;;
26040;SDS011;13816;53.628;9.950;2023-06-26T04:40:44;11.23;;;10.03;;
26040;SDS011;13816;53.628;9.950;2023-06-26T04:43:12;16.10;;;11.03;;
26040;SDS011;13816;53.628;9.950;2023-06-26T04:45:47;11.93;;;10.33;;
26040;SDS011;13816;53.628;9.950;2023-06-26T04:48:25;11.57;;;10.37;;
26040;SDS011;13816;53.628;9.950;2023-06-26T04:51:04;12.70;;;10.07;;
26040;SDS011;13816;53.628;9.950;2023-06-26T04:53:34;10.80;;;9.70;;
26040;SDS011;13816;53.628;9.950;2023-06-26T04:56:04;10.83;;;9.83;;
26040;SDS011;13816;53.628;9.950;2023-06-26T04:58:41;14.23;;;9.20;;
26040;SDS011;13816;53.628;9.950;2023-06-26T05:01:08;11.40;;;9.43;;
26040;SDS011;13816;53.628;9.950;2023-06-26T05:03:36;10.17;;;9.07;;
26040;SDS011;13816;53.628;9.950;2023-06-26T05:06:04;11.53;;;9.50;;
26040;SDS011;13816;53.628;9.950;2023-06-26T05:08:35;11.03;;;9.50;;
26040;SDS011;13816;53.628;9.950;2023-06-26T05:11:02;10.90;;;9.80;;
26040;SDS011;13816;53.628;9.950;2023-06-26T05:13:30;14.37;;;9.10;;
26040;SDS011;13816;53.628;9.950;2023-06-26T05:15:58;11.07;;;9.43;;
26040;SDS011;13816;53.628;9.950;2023-06-26T05:18:25;14.83;;;9.60;;
26040;SDS011;13816;53.628;9.950;2023-06-26T05:20:53;10.80;;;9.17;;
26040;SDS011;13816;53.628;9.950;2023-06-26T05:23:20;10.43;;;8.87;;
26040;SDS011;13816;53.628;9.950;2023-06-26T05:25:49;12.47;;;9.90;;
26040;SDS011;13816;53.628;9.950;2023-06-26T05:28:16;12.40;;;9.70;;
26040;SDS011;13816;53.628;9.950;2023-06-26T05:30:44;9.83;;;8.83;;
26040;SDS011;13816;53.628;9.950;2023-06-26T05:33:13;15.80;;;9.57;;
26040;SDS011;13816;53.628;9.950;2023-06-26T05:35:41;12.37;;;10.10;;
26040;SDS011;13816;53.628;9.950;2023-06-26T05:38:10;12.53;;;10.37;;
26040;SDS011;13816;53.628;9.950;2023-06-26T05:40:37;14.30;;;9.50;;
26040;SDS011;13816;53.628;9.950;2023-06-26T05:43:07;13.20;;;8.90;;
26040;SDS011;13816;53.628;9.950;2023-06-26T05:45:34;12.43;;;9.20;;
26040;SDS011;13816;53.628;9.950;2023-06-26T05:48:02;14.47;;;9.97;;
26040;SDS011;13816;53.628;9.950;2023-06-26T05:50:30;11.47;;;9.07;;
26040;SDS011;13816;53.628;9.950;2023-06-26T05:52:57;11.20;;;8.67;;
26040;SDS011;13816;53.628;9.950;2023-06-26T05:55:25;10.17;;;9.07;;
26040;SDS011;13816;53.628;9.950;2023-06-26T05:57:52;13.00;;;8.70;;
26040;SDS011;13816;53.628;9.950;2023-06-26T06:00:21;10.50;;;9.10;;
26040;SDS011;13816;53.628;9.950;2023-06-26T06:02:48;14.93;;;9.37;;
26040;SDS011;13816;53.628;9.950;2023-06-26T06:05:22;10.80;;;8.37;;
26040;SDS011;13816;53.628;9.950;2023-06-26T06:07:50;18.10;;;9.50;;
26040;SDS011;13816;53.628;9.950;2023-06-26T06:10:17;10.90;;;8.93;;
26040;SDS011;13816;53.628;9.950;2023-06-26T06:12:45;12.97;;;9.30;;
26040;SDS011;13816;53.628;9.950;2023-06-26T06:15:12;13.47;;;8.77;;
26040;SDS011;13816;53.628;9.950;2023-06-26T06:17:39;10.73;;;8.47;;
26040;SDS011;13816;53.628;9.950;2023-06-26T06:20:07;12.93;;;8.97;;
26040;SDS011;13816;53.628;9.950;2023-06-26T06:22:34;13.60;;;8.43;;
26040;SDS011;13816;53.628;9.950;2023-06-26T06:25:02;12.43;;;8.50;;
26040;SDS011;13816;53.628;9.950;2023-06-26T06:27:30;10.17;;;9.03;;
26040;SDS011;13816;53.628;9.950;2023-06-26T06:29:57;13.10;;;7.90;;
26040;SDS011;13816;53.628;9.950;2023-06-26T06:32:25;14.53;;;7.83;;
26040;SDS011;13816;53.628;9.950;2023-06-26T06:34:52;12.23;;;7.30;;
26040;SDS011;13816;53.628;9.950;2023-06-26T06:37:20;12.40;;;9.10;;
26040;SDS011;13816;53.628;9.950;2023-06-26T06:39:47;8.83;;;7.80;;
26040;SDS011;13816;53.628;9.950;2023-06-26T06:42:15;8.60;;;7.67;;
26040;SDS011;13816;53.628;9.950;2023-06-26T06:44:42;11.30;;;8.37;;
26040;SDS011;13816;53.628;9.950;2023-06-26T06:47:10;14.93;;;8.37;;
26040;SDS011;13816;53.628;9.950;2023-06-26T06:49:37;9.60;;;7.90;;
26040;SDS011;13816;53.628;9.950;2023-06-26T06:52:04;12.83;;;7.27;;
26040;SDS011;13816;53.628;9.950;2023-06-26T06:54:33;13.43;;;8.37;;
26040;SDS011;13816;53.628;9.950;2023-06-26T06:57:18;14.00;;;9.20;;
26040;SDS011;13816;53.628;9.950;2023-06-26T06:59:45;12.03;;;8.27;;
26040;SDS011;13816;53.628;9.950;2023-06-26T07:02:14;13.40;;;8.30;;
26040;SDS011;13816;53.628;9.950;2023-06-26T07:04:41;8.63;;;7.73;;
26040;SDS011;13816;53.628;9.950;2023-06-26T07:07:09;12.67;;;8.70;;
26040;SDS011;13816;53.628;9.950;2023-06-26T07:09:36;12.50;;;9.33;;
26040;SDS011;13816;53.628;9.950;2023-06-26T07:12:03;11.43;;;8.17;;
26040;SDS011;13816;53.628;9.950;2023-06-26T07:14:31;8.90;;;8.00;;
26040;SDS011;13816;53.628;9.950;2023-06-26T07:16:58;10.20;;;7.70;;
26040;SDS011;13816;53.628;9.950;2023-06-26T07:19:25;12.60;;;7.67;;
26040;SDS011;13816;53.628;9.950;2023-06-26T07:21:52;9.00;;;7.27;;
26040;SDS011;13816;53.628;9.950;2023-06-26T07:24:19;8.60;;;7.40;;
26040;SDS011;13816;53.628;9.950;2023-06-26T07:26:47;11.07;;;8.13;;
26040;SDS011;13816;53.628;9.950;2023-06-26T07:29:14;13.87;;;8.00;;
26040;SDS011;13816;53.628;9.950;2023-06-26T07:31:42;8.73;;;6.63;;
26040;SDS011;13816;53.628;9.950;2023-06-26T07:34:11;11.20;;;8.10;;
26040;SDS011;13816;53.628;9.950;2023-06-26T07:36:39;7.33;;;6.63;;
26040;SDS011;13816;53.628;9.950;2023-06-26T07:39:06;11.27;;;8.10;;
26040;SDS011;13816;53.628;9.950;2023-06-26T07:41:36;8.63;;;7.60;;
26040;SDS011;13816;53.628;9.950;2023-06-26T07:44:03;8.60;;;7.23;;
26040;SDS011;13816;53.628;9.950;2023-06-26T07:46:30;10.47;;;7.50;;
26040;SDS011;13816;53.628;9.950;2023-06-26T07:48:58;10.00;;;7.93;;
26040;SDS011;13816;53.628;9.950;2023-06-26T07:51:25;11.00;;;7.33;;
26040;SDS011;13816;53.628;9.950;2023-06-26T07:53:53;15.70;;;7.53;;
26040;SDS011;13816;53.628;9.950;2023-06-26T07:56:20;9.10;;;7.10;;
26040;SDS011;13816;53.628;9.950;2023-06-26T07:58:47;11.27;;;7.10;;
26040;SDS011;13816;53.628;9.950;2023-06-26T08:01:15;10.20;;;7.80;;
26040;SDS011;13816;53.628;9.950;2023-06-26T08:03:42;13.80;;;6.90;;
26040;SDS011;13816;53.628;9.950;2023-06-26T08:06:12;11.07;;;8.03;;
26040;SDS011;13816;53.628;9.950;2023-06-26T08:08:48;9.93;;;7.60;;
26040;SDS011;13816;53.628;9.950;2023-06-26T08:11:16;18.77;;;7.57;;
26040;SDS011;13816;53.628;9.950;2023-06-26T08:13:48;9.50;;;7.30;;
26040;SDS011;13816;53.628;9.950;2023-06-26T08:16:23;11.83;;;7.40;;
26040;SDS011;13816;53.628;9.950;2023-06-26T08:18:52;10.53;;;7.53;;
26040;SDS011;13816;53.628;9.950;2023-06-26T08:21:27;10.10;;;7.23;;
26040;SDS011;13816;53.628;9.950;2023-06-26T08:23:59;8.00;;;7.20;;
26040;SDS011;13816;53.628;9.950;2023-06-26T08:26:44;7.57;;;6.83;;
26040;SDS011;13816;53.628;9.950;2023-06-26T08:29:17;10.77;;;7.37;;
26040;SDS011;13816;53.628;9.950;2023-06-26T08:31:51;7.97;;;7.03;;
26040;SDS011;13816;53.628;9.950;2023-06-26T08:34:44;10.00;;;7.10;;
26040;SDS011;13816;53.628;9.950;2023-06-26T08:37:16;8.73;;;7.40;;
26040;SDS011;13816;53.628;9.950;2023-06-26T08:39:47;7.47;;;6.67;;
26040;SDS011;13816;53.628;9.950;2023-06-26T08:42:16;7.40;;;6.50;;
26040;SDS011;13816;53.628;9.950;2023-06-26T08:44:45;10.10;;;6.63;;
26040;SDS011;13816;53.628;9.950;2023-06-26T08:47:26;7.43;;;6.27;;
26040;SDS011;13816;53.628;9.950;2023-06-26T08:50:08;7.33;;;6.63;;
26040;SDS011;13816;53.628;9.950;2023-06-26T08:53:01;11.13;;;7.87;;
26040;SDS011;13816;53.628;9.950;2023-06-26T08:55:27;8.90;;;7.27;;
26040;SDS011;13816;53.628;9.950;2023-06-26T08:58:05;7.83;;;7.00;;
26040;SDS011;13816;53.628;9.950;2023-06-26T09:00:37;9.97;;;7.40;;
26040;SDS011;13816;53.628;9.950;2023-06-26T09:03:06;9.03;;;8.20;;
26040;SDS011;13816;53.628;9.950;2023-06-26T09:05:34;8.77;;;7.23;;
26040;SDS011;13816;53.628;9.950;2023-06-26T09:08:02;8.40;;;7.70;;
26040;SDS011;13816;53.628;9.950;2023-06-26T09:10:31;9.37;;;8.47;;
26040;SDS011;13816;53.628;9.950;2023-06-26T09:13:02;9.50;;;8.60;;
26040;SDS011;13816;53.628;9.950;2023-06-26T09:15:36;9.47;;;8.50;;
26040;SDS011;13816;53.628;9.950;2023-06-26T09:18:05;10.83;;;8.10;;
26040;SDS011;13816;53.628;9.950;2023-06-26T09:20:32;10.47;;;8.70;;
26040;SDS011;13816;53.628;9.950;2023-06-26T09:23:00;10.13;;;9.07;;
26040;SDS011;13816;53.628;9.950;2023-06-26T09:25:28;12.47;;;8.83;;
26040;SDS011;13816;53.628;9.950;2023-06-26T09:27:56;16.27;;;9.80;;
26040;SDS011;13816;53.628;9.950;2023-06-26T09:30:23;10.07;;;9.00;;
26040;SDS011;13816;53.628;9.950;2023-06-26T09:32:52;14.53;;;9.77;;
26040;SDS011;13816;53.628;9.950;2023-06-26T09:35:21;11.80;;;9.47;;
26040;SDS011;13816;53.628;9.950;2023-06-26T09:37:48;10.93;;;8.90;;
26040;SDS011;13816;53.628;9.950;2023-06-26T09:40:16;13.07;;;9.57;;
26040;SDS011;13816;53.628;9.950;2023-06-26T09:42:44;23.40;;;9.60;;
26040;SDS011;13816;53.628;9.950;2023-06-26T09:45:17;10.53;;;8.80;;
26040;SDS011;13816;53.628;9.950;2023-06-26T09:47:46;16.73;;;9.17;;
26040;SDS011;13816;53.628;9.950;2023-06-26T09:50:23;12.00;;;8.67;;
26040;SDS011;13816;53.628;9.950;2023-06-26T09:52:52;16.87;;;8.87;;
26040;SDS011;13816;53.628;9.950;2023-06-26T09:55:20;12.03;;;9.37;;
26040;SDS011;13816;53.628;9.950;2023-06-26T09:57:52;13.23;;;11.10;;
26040;SDS011;13816;53.628;9.950;2023-06-26T10:00:19;13.47;;;8.97;;
26040;SDS011;13816;53.628;9.950;2023-06-26T10:02:47;14.10;;;10.67;;
26040;SDS011;13816;53.628;9.950;2023-06-26T10:05:14;12.60;;;9.60;;
26040;SDS011;13816;53.628;9.950;2023-06-26T10:07:42;16.40;;;9.93;;
26040;SDS011;13816;53.628;9.950;2023-06-26T10:10:09;11.17;;;10.10;;
26040;SDS011;13816;53.628;9.950;2023-06-26T10:12:37;13.60;;;11.13;;
26040;SDS011;13816;53.628;9.950;2023-06-26T10:15:04;17.80;;;11.00;;
26040;SDS011;13816;53.628;9.950;2023-06-26T10:17:38;11.67;;;10.47;;
26040;SDS011;13816;53.628;9.950;2023-06-26T10:20:09;11.47;;;9.80;;
26040;SDS011;13816;53.628;9.950;2023-06-26T10:22:39;14.63;;;11.50;;
26040;SDS011;13816;53.628;9.950;2023-06-26T10:25:08;19.03;;;11.93;;
26040;SDS011;13816;53.628;9.950;2023-06-26T10:27:38;21.37;;;12.60;;
26040;SDS011;13816;53.628;9.950;2023-06-26T10:30:09;16.90;;;12.10;;
26040;SDS011;13816;53.628;9.950;2023-06-26T10:32:41;15.47;;;11.20;;
26040;SDS011;13816;53.628;9.950;2023-06-26T10:35:09;14.63;;;9.50;;
26040;SDS011;13816;53.628;9.950;2023-06-26T10:37:41;9.10;;;8.10;;
26040;SDS011;13816;53.628;9.950;2023-06-26T10:43:06;12.70;;;8.43;;
26040;SDS011;13816;53.628;9.950;2023-06-26T10:45:34;9.53;;;7.57;;
26040;SDS011;13816;53.628;9.950;2023-06-26T10:48:03;11.87;;;7.33;;
26040;SDS011;13816;53.628;9.950;2023-06-26T10:50:31;10.20;;;7.27;;
26040;SDS011;13816;53.628;9.950;2023-06-26T10:55:42;10.63;;;7.10;;
26040;SDS011;13816;53.628;9.950;2023-06-26T11:03:41;10.23;;;7.47;;
26040;SDS011;13816;53.628;9.950;2023-06-26T11:06:09;13.10;;;9.33;;
26040;SDS011;13816;53.628;9.950;2023-06-26T11:11:13;13.30;;;8.57;;
26040;SDS011;13816;53.628;9.950;2023-06-26T11:13:41;11.57;;;8.03;;
26040;SDS011;13816;53.628;9.950;2023-06-26T11:16:10;16.43;;;8.70;;
26040;SDS011;13816;53.628;9.950;2023-06-26T11:18:38;13.03;;;7.23;;
26040;SDS011;13816;53.628;9.950;2023-06-26T11:21:09;11.43;;;7.27;;
26040;SDS011;13816;53.628;9.950;2023-06-26T11:23:41;15.43;;;7.60;;
26040;SDS011;13816;53.628;9.950;2023-06-26T11:26:18;15.53;;;6.80;;
26040;SDS011;13816;53.628;9.950;2023-06-26T11:28:48;8.00;;;5.47;;
26040;SDS011;13816;53.628;9.950;2023-06-26T11:31:28;17.63;;;6.80;;
26040;SDS011;13816;53.628;9.950;2023-06-26T11:33:57;16.67;;;5.30;;
26040;SDS011;13816;53.628;9.950;2023-06-26T11:36:25;15.27;;;5.40;;
26040;SDS011;13816;53.628;9.950;2023-06-26T11:38:53;20.17;;;6.80;;
26040;SDS011;13816;53.628;9.950;2023-06-26T11:41:22;17.43;;;6.47;;
26040;SDS011;13816;53.628;9.950;2023-06-26T11:43:50;11.27;;;4.63;;
26040;SDS011;13816;53.628;9.950;2023-06-26T11:46:21;19.47;;;4.90;;
26040;SDS011;13816;53.628;9.950;2023-06-26T11:48:49;11.93;;;4.97;;
26040;SDS011;13816;53.628;9.950;2023-06-26T11:51:17;16.10;;;4.37;;
26040;SDS011;13816;53.628;9.950;2023-06-26T11:53:45;11.40;;;3.93;;
26040;SDS011;13816;53.628;9.950;2023-06-26T11:56:17;14.60;;;3.83;;
26040;SDS011;13816;53.628;9.950;2023-06-26T11:59:03;11.63;;;3.20;;
26040;SDS011;13816;53.628;9.950;2023-06-26T12:01:36;10.60;;;3.00;;
26040;SDS011;13816;53.628;9.950;2023-06-26T12:04:05;9.37;;;3.00;;
26040;SDS011;13816;53.628;9.950;2023-06-26T12:06:39;12.50;;;4.00;;
26040;SDS011;13816;53.628;9.950;2023-06-26T12:09:09;11.17;;;3.13;;
26040;SDS011;13816;53.628;9.950;2023-06-26T12:11:38;12.97;;;3.37;;
26040;SDS011;13816;53.628;9.950;2023-06-26T12:14:06;9.33;;;3.00;;
26040;SDS011;13816;53.628;9.950;2023-06-26T12:16:34;11.23;;;3.10;;
26040;SDS011;13816;53.628;9.950;2023-06-26T12:19:03;10.43;;;3.47;;
26040;SDS011;13816;53.628;9.950;2023-06-26T12:24:01;11.87;;;2.70;;
26040;SDS011;13816;53.628;9.950;2023-06-26T12:26:28;8.40;;;3.93;;
26040;SDS011;13816;53.628;9.950;2023-06-26T12:29:05;10.33;;;3.40;;
26040;SDS011;13816;53.628;9.950;2023-06-26T12:31:33;9.40;;;3.00;;
26040;SDS011;13816;53.628;9.950;2023-06-26T12:34:01;10.53;;;3.03;;
26040;SDS011;13816;53.628;9.950;2023-06-26T12:36:28;10.87;;;3.40;;
26040;SDS011;13816;53.628;9.950;2023-06-26T12:38:56;17.93;;;3.50;;
26040;SDS011;13816;53.628;9.950;2023-06-26T12:41:24;12.50;;;3.37;;
26040;SDS011;13816;53.628;9.950;2023-06-26T12:43:58;6.90;;;3.87;;
26040;SDS011;13816;53.628;9.950;2023-06-26T12:46:34;11.77;;;3.40;;
26040;SDS011;13816;53.628;9.950;2023-06-26T12:49:02;7.40;;;2.70;;
26040;SDS011;13816;53.628;9.950;2023-06-26T12:51:33;6.10;;;2.37;;
26040;SDS011;13816;53.628;9.950;2023-06-26T12:54:00;8.03;;;2.90;;
26040;SDS011;13816;53.628;9.950;2023-06-26T12:56:28;8.10;;;3.00;;
26040;SDS011;13816;53.628;9.950;2023-06-26T12:58:55;6.73;;;2.77;;
26040;SDS011;13816;53.628;9.950;2023-06-26T13:01:23;7.33;;;3.00;;
26040;SDS011;13816;53.628;9.950;2023-06-26T13:03:50;15.63;;;2.90;;
26040;SDS011;13816;53.628;9.950;2023-06-26T13:06:18;7.60;;;3.30;;
26040;SDS011;13816;53.628;9.950;2023-06-26T13:08:46;8.37;;;2.40;;
26040;SDS011;13816;53.628;9.950;2023-06-26T13:11:13;9.33;;;3.07;;
26040;SDS011;13816;53.628;9.950;2023-06-26T13:13:43;9.97;;;3.40;;
26040;SDS011;13816;53.628;9.950;2023-06-26T13:16:12;7.87;;;2.80;;
26040;SDS011;13816;53.628;9.950;2023-06-26T13:18:40;8.80;;;2.30;;
26040;SDS011;13816;53.628;9.950;2023-06-26T13:21:07;9.20;;;2.90;;
26040;SDS011;13816;53.628;9.950;2023-06-26T13:23:35;7.50;;;2.70;;
26040;SDS011;13816;53.628;9.950;2023-06-26T13:26:02;9.70;;;2.20;;
26040;SDS011;13816;53.628;9.950;2023-06-26T13:28:30;10.80;;;2.30;;
26040;SDS011;13816;53.628;9.950;2023-06-26T13:30:57;9.93;;;2.43;;
26040;SDS011;13816;53.628;9.950;2023-06-26T13:33:25;10.47;;;2.40;;
26040;SDS011;13816;53.628;9.950;2023-06-26T13:35:52;4.90;;;2.27;;
26040;SDS011;13816;53.628;9.950;2023-06-26T13:38:20;12.13;;;2.73;;
26040;SDS011;13816;53.628;9.950;2023-06-26T13:40:51;7.10;;;2.50;;
26040;SDS011;13816;53.628;9.950;2023-06-26T13:43:22;5.23;;;2.10;;
26040;SDS011;13816;53.628;9.950;2023-06-26T13:45:50;4.87;;;2.00;;
26040;SDS011;13816;53.628;9.950;2023-06-26T13:48:17;7.47;;;2.53;;
26040;SDS011;13816;53.628;9.950;2023-06-26T13:50:45;5.10;;;2.10;;
26040;SDS011;13816;53.628;9.950;2023-06-26T13:53:19;6.70;;;2.43;;
26040;SDS011;13816;53.628;9.950;2023-06-26T13:55:47;4.47;;;1.80;;
26040;SDS011;13816;53.628;9.950;2023-06-26T13:58:14;6.33;;;2.00;;
26040;SDS011;13816;53.628;9.950;2023-06-26T14:00:42;6.77;;;2.50;;
26040;SDS011;13816;53.628;9.950;2023-06-26T14:03:13;13.20;;;3.13;;
26040;SDS011;13816;53.628;9.950;2023-06-26T14:05:41;10.20;;;2.43;;
26040;SDS011;13816;53.628;9.950;2023-06-26T14:08:08;17.37;;;2.90;;
26040;SDS011;13816;53.628;9.950;2023-06-26T14:10:37;5.57;;;2.43;;
26040;SDS011;13816;53.628;9.950;2023-06-26T14:13:05;6.20;;;2.53;;
26040;SDS011;13816;53.628;9.950;2023-06-26T14:15:32;8.90;;;2.60;;
26040;SDS011;13816;53.628;9.950;2023-06-26T14:18:00;3.80;;;1.80;;
26040;SDS011;13816;53.628;9.950;2023-06-26T14:20:30;4.63;;;2.30;;
26040;SDS011;13816;53.628;9.950;2023-06-26T14:22:59;6.30;;;1.80;;
26040;SDS011;13816;53.628;9.950;2023-06-26T14:25:26;6.03;;;2.07;;
26040;SDS011;13816;53.628;9.950;2023-06-26T14:27:58;3.90;;;1.60;;
26040;SDS011;13816;53.628;9.950;2023-06-26T14:30:25;5.37;;;2.30;;
26040;SDS011;13816;53.628;9.950;2023-06-26T14:32:56;9.30;;;2.33;;
26040;SDS011;13816;53.628;9.950;2023-06-26T14:35:24;6.27;;;1.90;;
26040;SDS011;13816;53.628;9.950;2023-06-26T14:37:52;7.60;;;2.63;;
26040;SDS011;13816;53.628;9.950;2023-06-26T14:40:19;3.50;;;2.10;;
26040;SDS011;13816;53.628;9.950;2023-06-26T14:42:47;4.47;;;1.80;;
26040;SDS011;13816;53.628;9.950;2023-06-26T14:45:14;9.00;;;1.83;;
26040;SDS011;13816;53.628;9.950;2023-06-26T14:47:42;2.90;;;2.00;;
26040;SDS011;13816;53.628;9.950;2023-06-26T14:50:09;9.63;;;2.17;;
26040;SDS011;13816;53.628;9.950;2023-06-26T14:52:37;4.40;;;2.53;;
26040;SDS011;13816;53.628;9.950;2023-06-26T14:55:04;12.63;;;2.10;;
26040;SDS011;13816;53.628;9.950;2023-06-26T14:57:34;5.93;;;1.97;;
26040;SDS011;13816;53.628;9.950;2023-06-26T15:00:02;6.33;;;2.20;;
26040;SDS011;13816;53.628;9.950;2023-06-26T15:02:30;8.23;;;2.00;;
26040;SDS011;13816;53.628;9.950;2023-06-26T15:04:58;6.23;;;1.83;;
26040;SDS011;13816;53.628;9.950;2023-06-26T15:07:25;3.50;;;2.10;;
26040;SDS011;13816;53.628;9.950;2023-06-26T15:09:53;5.17;;;2.20;;